Time;durP1;ratioP1;P1;durP2;ratioP2;P2;SDS_P1;SDS_P2;PMS_P1;PMS_P2;Temp;Humidity;BMP_temperature;BMP_pressure;BME280_temperature;BME280_humidity;BME280_pressure;Samples;Min_cycle;Max_cycle;Signal;HPM_P1;HPM_P2
2022/11/17 00:10:37;;;;;;;;;;;;;;;;;;;;;
2022/11/17 00:17:21;;;;;;;17.48;11.88;;;8.40;99.90;;;;;;6268691;22;20028;-87
2022/11/17 00:24:47;;;;;;;17.60;11.48;;;7.80;99.90;;;;;;6174742;22;20391;-88
2022/11/17 00:34:20;;;;;;;15.98;11.40;;;7.70;99.90;;;;;;6243034;22;20099;-87
2022/11/17 00:37:17;;;;;;;14.15;11.00;;;7.70;99.90;;;;;;6114351;22;20055;-87
2022/11/17 00:40:24;;;;;;;17.88;11.68;;;7.70;99.90;;;;;;6183440;22;20510;-87
2022/11/17 00:43:49;;;;;;;;;;;;;;;;;;;;;
2022/11/17 00:47:29;;;;;;;17.80;11.05;;;7.80;99.90;;;;;;6149851;22;20020;-87
2022/11/17 00:50:25;;;;;;;;;;;;;;;;;;;;;
2022/11/17 01:02:27;;;;;;;18.42;10.77;;;8.00;99.90;;;;;;6238911;23;20019;-88
2022/11/17 01:05:27;;;;;;;;;;;;;;;;;;;;;
2022/11/17 01:08:49;;;;;;;15.30;10.85;;;7.50;99.90;;;;;;6212201;23;20028;-87
2022/11/17 01:11:41;;;;;;;16.35;11.00;;;7.60;99.90;;;;;;6161652;23;20023;-86
2022/11/17 01:15:46;;;;;;;16.77;11.20;;;7.60;99.90;;;;;;6216287;23;20341;-86
2022/11/17 01:18:35;;;;;;;15.25;10.80;;;7.60;99.90;;;;;;6220484;23;20024;-87
2022/11/17 01:21:51;;;;;;;;;;;;;;;;;;;;;
2022/11/17 01:25:06;;;;;;;14.10;10.52;;;7.60;99.90;;;;;;6200926;23;20391;-86
2022/11/17 01:27:47;;;;;;;;;;;;;;;;;;;;;
2022/11/17 01:31:12;;;;;;;14.20;9.98;;;7.60;99.90;;;;;;6214119;23;20023;-87
2022/11/17 01:37:19;;;;;;;16.50;10.70;;;7.50;99.90;;;;;;6121825;23;20023;-87
2022/11/17 01:40:17;;;;;;;15.13;10.50;;;7.50;99.90;;;;;;6124958;23;20039;-87
2022/11/17 01:43:27;;;;;;;14.98;10.55;;;6.90;99.90;;;;;;6076609;23;20020;-87
2022/11/17 01:53:49;;;;;;;;;;;;;;;;;;;;;
2022/11/17 01:56:51;;;;;;;15.73;11.05;;;7.60;99.90;;;;;;6192790;23;20023;-87
2022/11/17 01:59:54;;;;;;;;;;;;;;;;;;;;;
2022/11/17 02:03:05;;;;;;;14.40;9.65;;;7.30;99.90;;;;;;6157719;23;20075;-87
2022/11/17 02:06:31;;;;;;;15.45;10.18;;;7.40;99.90;;;;;;6186266;23;20025;-87
2022/11/17 02:09:58;;;;;;;15.48;10.02;;;7.00;99.90;;;;;;6116966;23;20114;-86
2022/11/17 02:15:53;;;;;;;15.07;10.20;;;7.90;99.90;;;;;;6184723;23;20017;-86
2022/11/17 02:18:57;;;;;;;18.65;10.00;;;8.00;99.90;;;;;;6179328;23;20028;-87
2022/11/17 02:21:59;;;;;;;16.70;9.63;;;7.40;99.90;;;;;;6093965;23;20028;-87
2022/11/17 02:31:32;;;;;;;16.08;9.05;;;7.50;99.90;;;;;;6108870;23;20086;-86
2022/11/17 02:34:46;;;;;;;;;;;;;;;;;;;;;
2022/11/17 02:37:31;;;;;;;17.48;9.65;;;7.40;99.90;;;;;;6147926;23;20059;-86
2022/11/17 02:40:37;;;;;;;;;;;;;;;;;;;;;
2022/11/17 02:47:49;;;;;;;15.13;9.63;;;7.40;99.90;;;;;;6108544;23;20074;-87
2022/11/17 02:54:04;;;;;;;15.38;9.80;;;7.40;99.90;;;;;;5999797;23;20030;-87
2022/11/17 03:01:27;;;;;;;;;;;;;;;;;;;;;
2022/11/17 03:04:51;;;;;;;;;;;;;;;;;;;;;
2022/11/17 03:11:32;;;;;;;14.90;10.50;;;7.40;99.90;;;;;;6097244;23;20483;-87
2022/11/17 03:18:34;;;;;;;17.70;10.35;;;6.60;99.90;;;;;;6083152;23;20083;-87
2022/11/17 03:28:48;;;;;;;15.73;10.70;;;7.00;99.90;;;;;;6062842;23;20024;-87
2022/11/17 03:31:18;;;;;;;16.42;11.60;;;7.30;99.90;;;;;;6144792;23;20028;-86
2022/11/17 03:34:18;;;;;;;;;;;;;;;;;;;;;
2022/11/17 03:37:50;;;;;;;;;;;;;;;;;;;;;
2022/11/17 03:40:56;;;;;;;;;;;;;;;;;;;;;
2022/11/17 03:43:36;;;;;;;;;;;;;;;;;;;;;
2022/11/17 03:46:41;;;;;;;;;;;;;;;;;;;;;
2022/11/17 03:50:00;;;;;;;;;;;;;;;;;;;;;
2022/11/17 03:53:09;;;;;;;;;;;;;;;;;;;;;
2022/11/17 03:56:10;;;;;;;14.52;11.23;;;7.00;99.90;;;;;;6106304;23;20028;-86
2022/11/17 04:01:58;;;;;;;17.13;12.52;;;7.00;99.90;;;;;;6148177;23;20024;-87
2022/11/17 04:05:50;;;;;;;17.67;13.15;;;7.40;99.90;;;;;;6183124;23;20016;-87
2022/11/17 04:07:56;;;;;;;15.45;12.25;;;7.00;99.90;;;;;;6094567;23;20089;-87
2022/11/17 04:10:24;;;;;;;13.98;11.57;;;6.90;99.90;;;;;;6182464;23;20020;-87
2022/11/17 04:15:56;;;;;;;17.02;12.38;;;7.00;99.90;;;;;;6182175;23;20056;-86
2022/11/17 04:18:30;;;;;;;15.23;11.32;;;8.00;99.90;;;;;;6183467;23;20028;-88
2022/11/17 04:21:01;;;;;;;16.05;12.07;;;7.70;99.90;;;;;;6182813;23;20021;-87
2022/11/17 04:23:27;;;;;;;16.92;11.52;;;6.90;99.90;;;;;;6183027;23;20025;-85
2022/11/17 04:29:16;;;;;;;15.70;11.70;;;6.80;99.90;;;;;;6183205;23;20055;-87
2022/11/17 04:32:52;;;;;;;16.95;11.95;;;6.90;99.90;;;;;;6157315;23;20099;-85
2022/11/17 04:39:06;;;;;;;;;;;;;;;;;;;;;
2022/11/17 04:46:03;;;;;;;13.43;10.73;;;6.80;99.90;;;;;;6139991;23;20094;-86
2022/11/17 04:49:59;;;;;;;13.63;11.07;;;6.10;99.90;;;;;;6088382;23;20023;-87
2022/11/17 04:53:41;;;;;;;13.07;10.80;;;6.40;99.90;;;;;;6077215;23;20021;-87
2022/11/17 04:56:32;;;;;;;;;;;;;;;;;;;;;
2022/11/17 05:00:25;;;;;;;16.42;11.57;;;6.30;99.90;;;;;;6214004;23;20390;-86
2022/11/17 05:02:41;;;;;;;;;;;;;;;;;;;;;
2022/11/17 05:05:41;;;;;;;;;;;;;;;;;;;;;
2022/11/17 05:08:18;;;;;;;15.68;10.82;;;6.30;99.90;;;;;;6214695;23;20020;-86
2022/11/17 05:14:00;;;;;;;16.02;11.65;;;6.60;99.90;;;;;;6213109;23;20020;-86
2022/11/17 05:20:24;;;;;;;12.57;9.52;;;7.30;99.90;;;;;;6214372;23;20027;-86
2022/11/17 05:26:43;;;;;;;;;;;;;;;;;;;;;
2022/11/17 05:29:13;;;;;;;13.20;10.05;;;6.90;99.90;;;;;;6169444;23;20035;-84
2022/11/17 05:31:39;;;;;;;12.85;10.05;;;6.50;99.90;;;;;;6212693;23;20047;-84
2022/11/17 05:34:46;;;;;;;13.10;10.70;;;6.60;99.90;;;;;;6213766;23;20020;-85
2022/11/17 05:37:46;;;;;;;14.07;11.02;;;6.50;99.90;;;;;;6210719;23;20024;-86
2022/11/17 05:40:19;;;;;;;12.85;10.73;;;6.50;99.90;;;;;;6171397;23;20063;-85
2022/11/17 05:42:50;;;;;;;12.50;10.65;;;6.50;99.90;;;;;;6189031;23;20095;-85
2022/11/17 05:45:18;;;;;;;12.13;10.40;;;5.80;99.90;;;;;;6214326;23;20070;-84
2022/11/17 05:47:47;;;;;;;14.40;10.25;;;6.50;99.90;;;;;;6211810;23;20027;-84
2022/11/17 05:50:12;;;;;;;13.30;10.55;;;7.50;99.90;;;;;;6189582;23;20510;-85
2022/11/17 05:52:45;;;;;;;11.80;10.07;;;6.50;99.90;;;;;;6214242;23;20016;-85
2022/11/17 05:55:13;;;;;;;11.68;9.70;;;6.50;99.90;;;;;;6213543;23;20027;-85
2022/11/17 05:57:51;;;;;;;10.00;8.68;;;6.40;99.90;;;;;;6213978;23;20020;-84
2022/11/17 06:00:17;;;;;;;12.00;9.23;;;7.20;99.90;;;;;;6214335;23;20012;-84
2022/11/17 06:02:47;;;;;;;10.82;9.10;;;6.00;99.90;;;;;;6211898;23;20023;-83
2022/11/17 06:05:16;;;;;;;9.85;8.45;;;6.50;99.90;;;;;;6215450;23;20103;-84
2022/11/17 06:07:45;;;;;;;11.07;9.05;;;6.40;99.90;;;;;;6212731;23;20017;-84
2022/11/17 06:10:14;;;;;;;10.50;7.85;;;6.40;99.90;;;;;;6240691;23;20093;-84
2022/11/17 06:12:55;;;;;;;;;;;;;;;;;;;;;
2022/11/17 06:15:24;;;;;;;14.45;8.02;;;6.50;99.90;;;;;;6211879;23;20059;-84
2022/11/17 06:18:01;;;;;;;13.75;8.02;;;6.30;99.90;;;;;;6212414;23;20023;-85
2022/11/17 06:20:35;;;;;;;8.80;7.60;;;6.40;99.90;;;;;;6211962;23;20016;-84
2022/11/17 06:23:05;;;;;;;12.32;8.13;;;6.40;99.90;;;;;;6212948;23;20024;-84
2022/11/17 06:25:42;;;;;;;8.90;7.55;;;6.30;99.90;;;;;;6214489;23;20078;-84
2022/11/17 06:28:16;;;;;;;11.07;7.35;;;6.30;99.90;;;;;;6241391;23;20016;-84
2022/11/17 06:30:47;;;;;;;10.15;7.40;;;6.30;99.90;;;;;;6211836;23;20031;-84
2022/11/17 06:33:18;;;;;;;11.63;7.50;;;6.30;99.90;;;;;;6189209;23;20024;-84
2022/11/17 06:35:46;;;;;;;11.65;7.55;;;6.30;99.90;;;;;;6187804;23;20506;-84
2022/11/17 06:38:17;;;;;;;14.73;8.00;;;7.00;99.90;;;;;;6213401;23;20482;-84
2022/11/17 06:40:55;;;;;;;10.48;7.38;;;6.40;99.90;;;;;;6213339;23;20008;-84
2022/11/17 06:43:33;;;;;;;9.38;6.95;;;7.00;99.90;;;;;;6212929;23;20073;-85
2022/11/17 06:46:06;;;;;;;10.73;7.68;;;6.30;99.90;;;;;;6187741;23;20082;-85
2022/11/17 06:48:34;;;;;;;13.07;7.32;;;6.30;99.90;;;;;;6213633;23;20101;-84
2022/11/17 06:51:05;;;;;;;10.15;7.43;;;6.50;99.90;;;;;;6186986;23;20074;-84
2022/11/17 06:53:32;;;;;;;8.82;7.03;;;7.00;99.90;;;;;;6188940;23;20020;-84
2022/11/17 06:56:08;;;;;;;8.73;7.28;;;6.20;99.90;;;;;;6187772;23;20020;-84
2022/11/17 06:58:36;;;;;;;10.20;6.22;;;7.30;99.90;;;;;;6187015;23;20035;-84
2022/11/17 07:01:12;;;;;;;10.10;6.95;;;6.20;99.90;;;;;;6187313;23;20440;-84
2022/11/17 07:03:40;;;;;;;9.63;6.80;;;6.20;99.90;;;;;;6187903;23;20020;-83
2022/11/17 07:06:08;;;;;;;9.73;6.80;;;6.20;99.90;;;;;;6212225;23;20458;-84
2022/11/17 07:08:39;;;;;;;10.45;7.32;;;6.20;99.90;;;;;;6187777;23;20031;-84
2022/11/17 07:11:11;;;;;;;10.20;6.85;;;6.20;99.90;;;;;;6212973;23;20322;-84
2022/11/17 07:13:37;;;;;;;11.05;6.82;;;5.60;99.90;;;;;;6212180;23;20073;-84
2022/11/17 07:16:08;;;;;;;10.80;6.82;;;6.70;99.90;;;;;;6212704;23;20074;-85
2022/11/17 07:18:34;;;;;;;9.30;6.60;;;6.30;99.90;;;;;;6213116;23;20090;-84
2022/11/17 07:21:03;;;;;;;10.27;7.03;;;6.30;99.90;;;;;;6212649;23;20093;-83
2022/11/17 07:23:33;;;;;;;14.23;7.15;;;6.20;99.90;;;;;;6187995;23;20384;-83
2022/11/17 07:26:07;;;;;;;9.88;6.57;;;7.10;99.90;;;;;;6212175;23;20063;-83
2022/11/17 07:28:35;;;;;;;8.95;6.30;;;6.00;99.90;;;;;;6213038;23;20024;-84
2022/11/17 07:31:06;;;;;;;8.75;6.90;;;6.20;99.90;;;;;;6211579;23;20016;-84
2022/11/17 07:33:52;;;;;;;10.82;7.13;;;6.20;99.90;;;;;;6187573;23;20020;-84
2022/11/17 07:36:54;;;;;;;;;;;;;;;;;;;;;
2022/11/17 07:39:42;;;;;;;10.77;5.95;;;6.30;99.90;;;;;;6204925;23;20016;-84
2022/11/17 07:42:10;;;;;;;9.48;5.90;;;6.20;99.90;;;;;;6187719;23;20070;-84
2022/11/17 07:44:39;;;;;;;9.10;5.93;;;6.50;99.90;;;;;;6187391;23;20051;-85
2022/11/17 07:47:07;;;;;;;8.75;6.47;;;6.20;99.90;;;;;;6211126;23;20336;-83
2022/11/17 07:49:33;;;;;;;7.78;5.68;;;6.20;99.90;;;;;;6212269;23;20017;-84
2022/11/17 07:52:04;;;;;;;6.95;5.53;;;6.30;99.90;;;;;;6187943;23;20321;-84
2022/11/17 07:55:36;;;;;;;;;;;;;;;;;;;;;
2022/11/17 08:01:26;;;;;;;;;;;;;;;;;;;;;
2022/11/17 08:04:13;;;;;;;9.32;4.78;;;6.50;99.90;;;;;;6211605;23;20203;-84
2022/11/17 08:06:44;;;;;;;8.82;5.53;;;6.30;99.90;;;;;;6186584;23;20062;-85
2022/11/17 08:09:52;;;;;;;7.63;5.13;;;6.20;99.90;;;;;;6212121;23;20447;-84
2022/11/17 08:12:05;;;;;;;8.02;5.22;;;6.30;99.90;;;;;;6200746;23;20017;-83
2022/11/17 08:14:44;;;;;;;;;;;;;;;;;;;;;
2022/11/17 08:17:18;;;;;;;6.78;4.90;;;6.20;99.90;;;;;;6211043;23;20078;-84
2022/11/17 08:19:43;;;;;;;6.75;4.63;;;7.00;99.90;;;;;;6187315;23;20019;-84
2022/11/17 08:22:12;;;;;;;7.03;5.45;;;6.30;99.90;;;;;;6211555;23;20023;-84
2022/11/17 08:24:37;;;;;;;7.35;5.10;;;6.20;99.90;;;;;;6211854;23;20024;-84
2022/11/17 08:27:16;;;;;;;;;;;;;;;;;;;;;
2022/11/17 08:30:18;;;;;;;6.93;4.63;;;6.20;99.90;;;;;;6212061;23;20070;-85
2022/11/17 08:32:51;;;;;;;9.57;4.93;;;6.20;99.90;;;;;;6154113;23;20225;-84
2022/11/17 08:35:23;;;;;;;7.63;4.97;;;6.20;99.90;;;;;;6213974;23;20100;-84
2022/11/17 08:37:57;;;;;;;6.50;4.82;;;6.70;99.90;;;;;;6186176;23;20124;-85
2022/11/17 08:40:25;;;;;;;7.53;4.72;;;6.70;99.90;;;;;;6183194;23;20016;-84
2022/11/17 08:43:04;;;;;;;8.57;5.00;;;7.50;99.90;;;;;;6212321;23;20024;-84
2022/11/17 08:45:30;;;;;;;8.02;4.93;;;6.20;99.90;;;;;;6187524;23;20020;-84
2022/11/17 08:47:58;;;;;;;12.57;8.07;;;6.40;99.90;;;;;;6187028;23;20153;-84
2022/11/17 08:50:46;;;;;;;8.13;5.45;;;6.20;99.90;;;;;;6211698;23;20035;-85
2022/11/17 08:53:25;;;;;;;;;;;;;;;;;;;;;
2022/11/17 08:56:00;;;;;;;8.52;5.63;;;6.30;99.90;;;;;;6211894;23;20337;-84
2022/11/17 08:58:25;;;;;;;10.07;6.30;;;6.50;99.90;;;;;;6210994;23;20020;-84
2022/11/17 09:00:53;;;;;;;6.78;5.10;;;6.20;99.90;;;;;;6211842;23;20348;-85
2022/11/17 09:03:22;;;;;;;8.35;6.07;;;6.30;99.90;;;;;;6212402;23;20028;-84
2022/11/17 09:06:01;;;;;;;7.68;5.53;;;6.40;99.90;;;;;;6211204;23;20027;-84
2022/11/17 09:08:38;;;;;;;6.88;5.32;;;6.40;99.90;;;;;;6212813;23;20059;-84
2022/11/17 09:11:07;;;;;;;9.15;6.15;;;6.60;99.90;;;;;;6186711;23;20016;-84
2022/11/17 09:13:36;;;;;;;8.70;5.63;;;6.40;99.90;;;;;;6211860;23;20024;-84
2022/11/17 09:16:04;;;;;;;7.05;5.57;;;6.40;99.90;;;;;;6211033;23;20027;-84
2022/11/17 09:18:33;;;;;;;9.40;5.90;;;6.40;99.90;;;;;;6212036;23;20035;-84
2022/11/17 09:21:11;;;;;;;8.55;6.63;;;6.50;99.90;;;;;;6187666;23;20091;-84
2022/11/17 09:23:40;;;;;;;8.43;5.78;;;6.50;99.90;;;;;;6211854;23;20102;-84
2022/11/17 09:26:11;;;;;;;8.40;5.45;;;7.00;99.90;;;;;;6186867;23;20380;-84
2022/11/17 09:28:37;;;;;;;8.70;6.28;;;6.40;99.90;;;;;;6212068;23;20020;-84
2022/11/17 09:31:15;;;;;;;8.93;6.32;;;6.40;99.90;;;;;;6211766;23;20063;-84
2022/11/17 09:33:41;;;;;;;8.27;6.47;;;6.40;99.90;;;;;;6211730;23;20035;-84
2022/11/17 09:36:13;;;;;;;7.90;5.38;;;6.30;99.90;;;;;;6214575;23;20055;-84
2022/11/17 09:38:45;;;;;;;7.97;5.67;;;6.40;99.90;;;;;;6214876;23;20020;-84
2022/11/17 09:41:15;;;;;;;7.68;5.25;;;6.40;99.90;;;;;;6212869;23;20463;-84
2022/11/17 09:44:07;;;;;;;8.57;5.30;;;6.50;99.90;;;;;;6214470;23;20024;-84
2022/11/17 09:47:14;;;;;;;7.00;4.78;;;6.50;99.90;;;;;;6186342;23;20091;-84
2022/11/17 09:49:53;;;;;;;7.82;5.03;;;6.00;99.90;;;;;;6213286;23;20020;-85
2022/11/17 09:52:36;;;;;;;8.85;5.55;;;6.60;99.90;;;;;;6215376;23;20023;-84
2022/11/17 09:55:18;;;;;;;;;;;;;;;;;;;;;
2022/11/17 09:58:39;;;;;;;;;;;;;;;;;;;;;
2022/11/17 10:01:19;;;;;;;;;;;;;;;;;;;;;
2022/11/17 10:03:58;;;;;;;6.97;5.40;;;6.50;99.90;;;;;;6213080;23;20020;-85
2022/11/17 10:06:47;;;;;;;6.50;5.05;;;6.60;99.90;;;;;;6188345;23;20046;-84
2022/11/17 10:09:33;;;;;;;8.43;6.20;;;6.50;99.90;;;;;;6213470;23;20099;-85
2022/11/17 10:12:39;;;;;;;8.43;6.32;;;6.50;99.90;;;;;;6213400;23;20522;-84
2022/11/17 10:15:54;;;;;;;8.52;5.82;;;6.60;99.90;;;;;;6212474;23;20035;-84
2022/11/17 10:18:20;;;;;;;7.93;5.70;;;6.60;99.90;;;;;;6188997;23;20032;-84
2022/11/17 10:20:52;;;;;;;7.20;5.70;;;6.50;99.90;;;;;;6213695;23;20052;-84
2022/11/17 10:23:29;;;;;;;7.57;5.57;;;7.00;99.90;;;;;;6213281;23;20645;-84
2022/11/17 10:26:32;;;;;;;10.05;5.78;;;6.50;99.90;;;;;;6213309;23;20028;-84
2022/11/17 10:29:23;;;;;;;;;;;6.50;99.90;;;;;;6212169;23;20020;-84
2022/11/17 10:32:01;;;;;;;8.07;6.15;;;6.60;99.90;;;;;;6213081;23;19938;-85
2022/11/17 10:34:52;;;;;;;;;;;;;;;;;;;;;
2022/11/17 10:37:33;;;;;;;10.60;6.28;;;6.50;99.90;;;;;;6213296;23;20024;-84
2022/11/17 10:40:27;;;;;;;;;;;;;;;;;;;;;
2022/11/17 10:43:04;;;;;;;7.00;5.28;;;6.60;99.90;;;;;;6212001;23;20028;-84
2022/11/17 10:45:33;;;;;;;12.38;10.18;;;6.80;99.90;;;;;;6212571;23;20337;-84
2022/11/17 10:48:24;;;;;;;21.83;15.48;;;6.70;99.90;;;;;;6213447;23;20078;-84
2022/11/17 10:51:08;;;;;;;;;;;;;;;;;;;;;
2022/11/17 10:54:42;;;;;;;8.35;6.15;;;6.60;99.90;;;;;;6213367;23;20109;-84
2022/11/17 10:57:25;;;;;;;9.43;5.80;;;6.80;99.90;;;;;;6211278;23;20048;-85
2022/11/17 11:00:30;;;;;;;8.25;5.95;;;6.30;99.90;;;;;;6217461;23;20020;-84
2022/11/17 11:03:19;;;;;;;7.13;5.65;;;6.70;99.90;;;;;;6212270;23;20024;-84
2022/11/17 11:06:28;;;;;;;7.55;5.72;;;6.70;99.90;;;;;;6186661;23;20384;-84
2022/11/17 11:09:10;;;;;;;8.23;6.43;;;6.20;99.90;;;;;;6150334;23;20027;-83
2022/11/17 11:11:43;;;;;;;9.75;6.35;;;6.50;99.90;;;;;;6211959;23;20123;-84
2022/11/17 11:14:27;;;;;;;8.90;6.65;;;6.50;99.90;;;;;;6213522;23;20020;-85
2022/11/17 11:17:39;;;;;;;11.45;7.35;;;6.50;99.90;;;;;;6212266;23;20024;-84
2022/11/17 11:20:14;;;;;;;;;;;;;;;;;;;;;
2022/11/17 11:23:15;;;;;;;10.02;6.85;;;6.60;99.90;;;;;;6213234;23;20020;-84
2022/11/17 11:25:48;;;;;;;10.52;7.03;;;6.50;99.90;;;;;;6186242;23;20286;-85
2022/11/17 11:28:42;;;;;;;;;;;;;;;;;;;;;
2022/11/17 11:31:45;;;;;;;23.58;20.00;;;6.60;99.90;;;;;;6211643;23;20506;-85
2022/11/17 11:34:51;;;;;;;9.30;7.25;;;6.60;99.90;;;;;;6186981;23;20020;-84
2022/11/17 11:37:17;;;;;;;11.98;7.35;;;6.60;99.90;;;;;;6171653;23;20024;-83
2022/11/17 11:39:59;;;;;;;9.70;7.35;;;6.60;99.90;;;;;;6211761;23;20347;-83
2022/11/17 11:42:58;;;;;;;9.00;7.20;;;6.60;99.90;;;;;;6212723;23;20084;-84
2022/11/17 11:45:44;;;;;;;8.90;7.35;;;6.70;99.90;;;;;;6212440;23;20074;-83
2022/11/17 11:48:22;;;;;;;9.27;7.63;;;6.60;99.90;;;;;;6211704;23;20027;-83
2022/11/17 11:51:00;;;;;;;11.80;7.75;;;6.70;99.90;;;;;;6186212;23;20338;-84
2022/11/17 11:53:33;;;;;;;12.77;8.52;;;6.70;99.90;;;;;;6212489;23;20333;-82
2022/11/17 11:56:08;;;;;;;10.43;8.82;;;6.80;99.90;;;;;;6213355;23;20016;-83
2022/11/17 11:58:41;;;;;;;14.50;8.80;;;6.70;99.90;;;;;;6212195;23;20082;-83
2022/11/17 12:01:10;;;;;;;11.23;8.70;;;7.40;99.90;;;;;;6185429;23;20022;-83
2022/11/17 12:03:55;;;;;;;10.20;7.78;;;6.70;99.90;;;;;;6187735;23;20298;-83
2022/11/17 12:06:39;;;;;;;9.48;7.78;;;7.50;99.90;;;;;;6213889;23;20168;-83
2022/11/17 12:09:16;;;;;;;10.80;8.20;;;6.70;99.90;;;;;;6212230;23;20184;-83
2022/11/17 12:12:00;;;;;;;9.75;7.95;;;6.70;99.90;;;;;;6212702;23;20024;-83
2022/11/17 12:14:30;;;;;;;11.43;8.40;;;6.70;99.90;;;;;;6212601;23;20016;-83
2022/11/17 12:17:06;;;;;;;11.13;8.20;;;7.80;99.90;;;;;;6186143;23;20087;-83
2022/11/17 12:19:56;;;;;;;12.43;7.95;;;7.70;99.90;;;;;;6212665;23;20012;-82
2022/11/17 12:22:30;;;;;;;10.70;7.35;;;6.70;99.90;;;;;;6211497;23;20027;-84
2022/11/17 12:25:13;;;;;;;10.02;8.07;;;7.20;99.90;;;;;;6187638;23;20020;-83
2022/11/17 12:27:40;;;;;;;10.25;7.55;;;6.70;99.90;;;;;;6187510;23;20017;-83
2022/11/17 12:30:27;;;;;;;11.15;7.25;;;7.70;99.90;;;;;;6212131;23;20024;-83
2022/11/17 12:32:54;;;;;;;10.00;7.82;;;6.70;99.90;;;;;;6186085;23;20329;-83
2022/11/17 12:35:26;;;;;;;9.40;7.68;;;6.70;99.90;;;;;;6211785;23;20452;-83
2022/11/17 12:38:14;;;;;;;8.93;6.97;;;6.70;99.90;;;;;;6212603;23;20016;-83
2022/11/17 12:40:44;;;;;;;11.15;7.70;;;6.80;99.90;;;;;;6212474;23;20024;-82
2022/11/17 12:43:13;;;;;;;9.88;7.10;;;6.80;99.90;;;;;;6212249;23;20012;-83
2022/11/17 12:45:57;;;;;;;11.75;7.72;;;6.70;99.90;;;;;;6211463;23;20047;-83
2022/11/17 12:48:28;;;;;;;8.65;6.70;;;6.30;99.90;;;;;;6213273;23;20023;-84
2022/11/17 12:51:21;;;;;;;8.63;7.03;;;6.90;99.90;;;;;;6210904;23;20604;-83
2022/11/17 12:54:19;;;;;;;7.57;6.32;;;6.80;99.90;;;;;;6212113;23;20051;-83
2022/11/17 12:57:03;;;;;;;8.60;7.20;;;6.70;99.90;;;;;;6202978;23;20024;-83
2022/11/17 12:59:37;;;;;;;11.18;8.50;;;6.90;99.90;;;;;;6183112;23;20457;-83
2022/11/17 13:02:33;;;;;;;9.40;7.88;;;6.70;99.90;;;;;;6209077;23;20375;-83
2022/11/17 13:05:02;;;;;;;12.40;8.10;;;6.90;99.90;;;;;;6181706;23;20021;-83
2022/11/17 13:07:28;;;;;;;11.80;10.02;;;7.00;99.90;;;;;;6158392;23;20027;-83
2022/11/17 13:09:57;;;;;;;10.60;7.50;;;7.30;99.90;;;;;;6184205;23;20029;-83
2022/11/17 13:12:29;;;;;;;10.95;7.40;;;7.80;99.90;;;;;;6158380;23;20417;-83
2022/11/17 13:14:58;;;;;;;10.70;7.27;;;7.90;99.90;;;;;;6160265;23;20024;-83
2022/11/17 13:17:28;;;;;;;12.18;7.43;;;6.90;99.90;;;;;;6183256;23;20099;-83
2022/11/17 13:20:00;;;;;;;9.77;7.25;;;6.80;99.90;;;;;;6184672;23;20083;-83
2022/11/17 13:22:26;;;;;;;8.98;6.45;;;6.80;99.90;;;;;;6184861;23;20055;-83
2022/11/17 13:24:52;;;;;;;10.43;6.90;;;6.90;99.90;;;;;;6183072;23;20023;-83
2022/11/17 13:27:23;;;;;;;9.45;7.40;;;7.80;99.90;;;;;;6184437;23;20349;-82
2022/11/17 13:29:50;;;;;;;8.65;6.82;;;7.10;99.90;;;;;;6183866;23;20021;-83
2022/11/17 13:32:20;;;;;;;10.82;7.40;;;7.40;99.90;;;;;;6157783;23;20023;-82
2022/11/17 13:34:49;;;;;;;9.30;7.18;;;7.00;99.90;;;;;;6183684;23;20050;-82
2022/11/17 13:37:20;;;;;;;9.05;7.22;;;7.00;99.90;;;;;;6159382;23;20055;-82
2022/11/17 13:39:56;;;;;;;11.75;7.53;;;7.10;99.90;;;;;;6182218;23;20031;-83
2022/11/17 13:42:43;;;;;;;;;;;;;;;;;;;;;
2022/11/17 13:45:14;;;;;;;8.85;6.65;;;7.10;99.90;;;;;;6183880;23;20052;-84
2022/11/17 13:47:42;;;;;;;8.35;6.78;;;7.10;99.90;;;;;;6158321;23;20020;-83
2022/11/17 13:50:28;;;;;;;8.38;6.65;;;7.50;99.90;;;;;;6183893;23;20074;-84
2022/11/17 13:53:04;;;;;;;11.15;8.68;;;7.00;99.90;;;;;;6183894;23;20616;-83
2022/11/17 13:55:37;;;;;;;11.52;9.13;;;7.00;99.90;;;;;;6183624;23;20051;-83
2022/11/17 13:58:06;;;;;;;9.57;6.82;;;7.10;99.90;;;;;;6159010;23;20389;-83
2022/11/17 14:00:33;;;;;;;9.88;7.35;;;7.10;99.90;;;;;;6183004;23;20514;-83
2022/11/17 14:03:03;;;;;;;8.75;6.55;;;7.10;99.90;;;;;;6183923;23;20679;-83
2022/11/17 14:05:33;;;;;;;8.23;6.53;;;7.00;99.90;;;;;;6159153;23;20582;-84
2022/11/17 14:08:13;;;;;;;7.70;6.03;;;6.90;99.90;;;;;;6183735;23;20455;-84
2022/11/17 14:10:41;;;;;;;7.97;5.93;;;7.10;99.90;;;;;;6184438;23;20138;-84
2022/11/17 14:13:19;;;;;;;8.52;6.10;;;7.00;99.90;;;;;;6183766;23;20004;-84
2022/11/17 14:15:52;;;;;;;7.38;5.75;;;7.00;99.90;;;;;;6181810;23;20035;-84
2022/11/17 14:18:30;;;;;;;7.78;5.57;;;7.00;99.90;;;;;;6159862;23;20048;-84
2022/11/17 14:21:06;;;;;;;8.32;5.72;;;6.90;99.90;;;;;;6182885;23;20112;-84
2022/11/17 14:23:35;;;;;;;7.30;5.57;;;6.90;99.90;;;;;;6184459;23;20402;-83
2022/11/17 14:26:14;;;;;;;;;;;;;;;;;;;;;
2022/11/17 14:28:48;;;;;;;6.97;5.88;;;6.80;99.90;;;;;;6183646;23;20096;-83
2022/11/17 14:31:27;;;;;;;8.15;6.18;;;6.80;99.90;;;;;;6158868;23;20016;-84
2022/11/17 14:34:05;;;;;;;;;;;;;;;;;;;;;
2022/11/17 14:36:40;;;;;;;8.35;6.18;;;7.40;99.90;;;;;;6182963;23;20019;-84
2022/11/17 14:39:15;;;;;;;7.85;5.93;;;6.40;99.90;;;;;;6159683;23;20067;-83
2022/11/17 14:42:09;;;;;;;11.52;6.72;;;8.00;99.90;;;;;;6182723;23;20028;-83
2022/11/17 14:44:37;;;;;;;8.27;6.07;;;6.80;99.90;;;;;;6158632;23;20024;-84
2022/11/17 14:47:24;;;;;;;8.07;6.47;;;7.20;99.90;;;;;;6182554;23;20031;-84
2022/11/17 14:49:57;;;;;;;7.95;6.32;;;6.80;99.90;;;;;;6182428;23;20079;-85
2022/11/17 14:52:43;;;;;;;;;;;;;;;;;;;;;
2022/11/17 14:55:17;;;;;;;;;;;6.70;99.90;;;;;;6184727;23;20542;-85
2022/11/17 14:58:03;;;;;;;10.85;6.28;;;6.90;99.90;;;;;;6181708;23;20279;-86
2022/11/17 15:00:59;;;;;;;8.90;6.00;;;6.80;99.90;;;;;;6183423;23;20086;-85
2022/11/17 15:06:41;;;;;;;;;;;;;;;;;;;;;
2022/11/17 15:12:43;;;;;;;8.88;6.05;;;6.90;99.90;;;;;;6136793;23;20024;-85
2022/11/17 15:15:15;;;;;;;;;;;6.90;99.90;;;;;;6184552;23;20013;-86
2022/11/17 15:19:19;;;;;;;;;;;;;;;;;;;;;
2022/11/17 15:28:14;;;;;;;;;;;;;;;;;;;;;
2022/11/17 15:31:43;;;;;;;;;;;;;;;;;;;;;
2022/11/17 15:35:09;;;;;;;;;;;;;;;;;;;;;
2022/11/17 15:38:42;;;;;;;7.82;5.80;;;6.90;99.90;;;;;;6146735;23;20155;-85
2022/11/17 15:41:20;;;;;;;;;;;;;;;;;;;;;
2022/11/17 15:44:49;;;;;;;8.82;7.05;;;6.90;99.90;;;;;;6182558;23;20016;-84
2022/11/17 15:47:42;;;;;;;13.48;6.60;;;6.80;99.90;;;;;;6037552;23;20021;-85
2022/11/17 15:51:03;;;;;;;;;;;;;;;;;;;;;
2022/11/17 15:57:54;;;;;;;7.32;5.90;;;6.90;99.90;;;;;;6074751;23;20109;-85
2022/11/17 16:01:10;;;;;;;7.78;6.22;;;6.90;99.90;;;;;;6128886;23;20020;-85
2022/11/17 16:07:17;;;;;;;9.45;6.45;;;6.50;99.90;;;;;;6070700;23;20027;-86
2022/11/17 16:09:43;;;;;;;;;;;6.80;99.90;;;;;;6212859;23;20023;-84
2022/11/17 16:12:18;;;;;;;9.95;6.72;;;6.90;99.90;;;;;;6213541;23;19919;-84
2022/11/17 16:14:44;;;;;;;10.50;7.53;;;6.70;99.90;;;;;;6211630;23;20118;-84
2022/11/17 16:17:18;;;;;;;9.77;8.02;;;6.80;99.90;;;;;;6212561;23;20020;-85
2022/11/17 16:19:44;;;;;;;10.80;8.40;;;6.80;99.90;;;;;;6212482;23;20024;-85
2022/11/17 16:22:18;;;;;;;10.70;7.55;;;6.90;99.90;;;;;;6212347;23;20085;-85
2022/11/17 16:24:44;;;;;;;10.77;8.25;;;6.80;99.90;;;;;;6213165;23;20018;-85
2022/11/17 16:27:17;;;;;;;8.75;7.57;;;7.10;99.90;;;;;;6188252;23;20099;-85
2022/11/17 16:29:48;;;;;;;9.77;7.78;;;6.90;99.90;;;;;;6213337;23;20020;-85
2022/11/17 16:32:14;;;;;;;12.00;8.20;;;7.10;99.90;;;;;;6212737;23;20052;-85
2022/11/17 16:35:11;;;;;;;12.05;7.68;;;6.70;99.90;;;;;;6211739;23;20322;-84
2022/11/17 16:37:42;;;;;;;10.18;8.30;;;6.70;99.90;;;;;;6186802;23;20020;-85
2022/11/17 16:40:15;;;;;;;10.30;9.00;;;6.80;99.90;;;;;;6187762;23;20032;-85
2022/11/17 16:42:43;;;;;;;10.88;9.25;;;6.70;99.90;;;;;;6211153;23;20337;-85
2022/11/17 16:45:12;;;;;;;12.18;8.10;;;6.90;99.90;;;;;;6214719;23;20130;-85
2022/11/17 16:47:37;;;;;;;12.48;8.95;;;6.70;99.90;;;;;;6213089;23;20048;-85
2022/11/17 16:50:11;;;;;;;12.25;9.48;;;6.80;99.90;;;;;;6188839;23;20411;-84
2022/11/17 16:52:37;;;;;;;10.88;9.77;;;6.80;99.90;;;;;;6214491;23;20023;-85
2022/11/17 16:55:20;;;;;;;12.30;10.40;;;6.90;99.90;;;;;;6214835;23;20016;-86
2022/11/17 16:57:54;;;;;;;15.55;11.07;;;6.30;99.90;;;;;;6189318;23;20016;-86
2022/11/17 17:00:19;;;;;;;12.57;9.68;;;7.10;99.90;;;;;;6215030;23;20115;-84
2022/11/17 17:02:49;;;;;;;14.10;10.50;;;6.90;99.90;;;;;;6212863;23;20792;-84
2022/11/17 17:05:15;;;;;;;12.88;10.57;;;6.70;99.90;;;;;;6215345;23;20020;-84
2022/11/17 17:07:41;;;;;;;12.52;10.27;;;6.80;99.90;;;;;;6189330;23;20027;-84
2022/11/17 17:10:07;;;;;;;12.32;10.15;;;7.10;99.90;;;;;;6213586;23;20024;-84
2022/11/17 17:12:33;;;;;;;17.23;11.40;;;6.90;99.90;;;;;;6214854;23;20019;-83
2022/11/17 17:14:58;;;;;;;16.00;11.23;;;6.90;99.90;;;;;;6214206;23;20016;-83
2022/11/17 17:17:24;;;;;;;12.13;10.75;;;6.90;99.90;;;;;;6240747;23;20058;-85
2022/11/17 17:19:50;;;;;;;16.83;13.48;;;7.40;99.90;;;;;;6214112;23;20078;-84
2022/11/17 17:22:16;;;;;;;17.05;14.00;;;6.90;99.90;;;;;;6189253;23;20070;-84
2022/11/17 17:24:42;;;;;;;17.95;14.02;;;7.00;99.90;;;;;;6213818;23;20082;-84
2022/11/17 17:27:07;;;;;;;19.70;15.27;;;6.90;99.90;;;;;;6213576;23;20016;-84